sensor_id;sensor_type;location;lat;lon;timestamp;pressure;altitude;pressure_sealevel;temperature;humidity
79316;BME280;68779;50.036;19.964;2023-07-29T00:27:02;101067.93;;;19.09;73.90
79316;BME280;68779;50.036;19.964;2023-07-29T00:57:16;101078.31;;;18.93;73.90
79316;BME280;68779;50.036;19.964;2023-07-29T01:27:31;101095.84;;;18.56;74.96
79316;BME280;68779;50.036;19.964;2023-07-29T01:57:45;101094.10;;;18.55;76.18
79316;BME280;68779;50.036;19.964;2023-07-29T02:58:27;101094.93;;;18.99;75.83
79316;BME280;68779;50.036;19.964;2023-07-29T03:28:44;101134.53;;;19.13;76.06
79316;BME280;68779;50.036;19.964;2023-07-29T03:59:06;101137.27;;;19.27;75.00
79316;BME280;68779;50.036;19.964;2023-07-29T04:59:53;101166.14;;;19.61;75.29
79316;BME280;68779;50.036;19.964;2023-07-29T05:30:08;101164.13;;;20.33;73.25
79316;BME280;68779;50.036;19.964;2023-07-29T06:00:23;101168.70;;;21.09;71.43
79316;BME280;68779;50.036;19.964;2023-07-29T06:30:38;101170.31;;;22.11;68.45
79316;BME280;68779;50.036;19.964;2023-07-29T07:00:51;101176.52;;;22.72;64.18
79316;BME280;68779;50.036;19.964;2023-07-29T07:31:07;101158.55;;;23.58;62.75
79316;BME280;68779;50.036;19.964;2023-07-29T08:01:21;101138.27;;;24.45;60.57
79316;BME280;68779;50.036;19.964;2023-07-29T08:31:35;101136.86;;;24.60;57.07
79316;BME280;68779;50.036;19.964;2023-07-29T09:01:49;101115.23;;;25.35;55.26
79316;BME280;68779;50.036;19.964;2023-07-29T10:18:20;101064.97;;;27.05;50.44
79316;BME280;68779;50.036;19.964;2023-07-29T10:48:43;101096.70;;;26.29;59.01
79316;BME280;68779;50.036;19.964;2023-07-29T11:18:59;101042.93;;;27.20;55.39
79316;BME280;68779;50.036;19.964;2023-07-29T11:49:14;101047.77;;;27.81;51.28
79316;BME280;68779;50.036;19.964;2023-07-29T12:19:35;101038.94;;;27.89;49.98
79316;BME280;68779;50.036;19.964;2023-07-29T12:49:49;101012.15;;;30.10;47.60
79316;BME280;68779;50.036;19.964;2023-07-29T13:20:08;100983.01;;;31.25;44.95
79316;BME280;68779;50.036;19.964;2023-07-29T13:50:22;100962.15;;;30.95;41.86
79316;BME280;68779;50.036;19.964;2023-07-29T14:20:39;100990.03;;;28.42;47.55
79316;BME280;68779;50.036;19.964;2023-07-29T14:50:53;101006.72;;;26.34;64.18
79316;BME280;68779;50.036;19.964;2023-07-29T15:21:07;100989.20;;;30.55;48.60
79316;BME280;68779;50.036;19.964;2023-07-29T15:51:26;100986.51;;;26.67;55.64
79316;BME280;68779;50.036;19.964;2023-07-29T16:21:42;100963.89;;;25.82;59.49
79316;BME280;68779;50.036;19.964;2023-07-29T16:51:56;100965.50;;;25.07;62.25
79316;BME280;68779;50.036;19.964;2023-07-29T17:22:10;100923.64;;;24.36;62.84
79316;BME280;68779;50.036;19.964;2023-07-29T17:52:26;100903.37;;;23.75;64.68
79316;BME280;68779;50.036;19.964;2023-07-29T18:22:42;100886.40;;;23.40;65.89
79316;BME280;68779;50.036;19.964;2023-07-29T18:52:57;100934.16;;;23.17;67.15
79316;BME280;68779;50.036;19.964;2023-07-29T19:23:14;100954.99;;;22.95;69.98
79316;BME280;68779;50.036;19.964;2023-07-29T19:53:28;100938.53;;;22.56;71.58
79316;BME280;68779;50.036;19.964;2023-07-29T20:23:44;100947.67;;;22.05;72.08
79316;BME280;68779;50.036;19.964;2023-07-29T20:54:03;100973.66;;;21.52;73.75
79316;BME280;68779;50.036;19.964;2023-07-29T21:24:18;100995.13;;;21.24;74.55
79316;BME280;68779;50.036;19.964;2023-07-29T21:54:38;101016.46;;;20.82;74.73
79316;BME280;68779;50.036;19.964;2023-07-29T22:24:53;101029.81;;;20.72;71.49
79316;BME280;68779;50.036;19.964;2023-07-29T22:55:08;101041.56;;;20.81;71.71
79316;BME280;68779;50.036;19.964;2023-07-29T23:25:24;101040.28;;;20.43;73.52
79316;BME280;68779;50.036;19.964;2023-07-29T23:55:38;101032.40;;;20.12;74.94
